sensor_id;sensor_type;location;lat;lon;timestamp;P1;durP1;ratioP1;P2;durP2;ratioP2
44842;SDS011;31884;52.538;13.820;2023-03-16T00:02:11;7.65;;;2.55;;
44842;SDS011;31884;52.538;13.820;2023-03-16T00:04:37;6.47;;;2.75;;
44842;SDS011;31884;52.538;13.820;2023-03-16T00:07:03;5.97;;;2.45;;
44842;SDS011;31884;52.538;13.820;2023-03-16T00:09:30;7.32;;;2.95;;
44842;SDS011;31884;52.538;13.820;2023-03-16T00:11:56;5.32;;;2.28;;
44842;SDS011;31884;52.538;13.820;2023-03-16T00:14:22;9.43;;;2.78;;
44842;SDS011;31884;52.538;13.820;2023-03-16T00:16:48;5.15;;;2.35;;
44842;SDS011;31884;52.538;13.820;2023-03-16T00:19:14;5.97;;;2.70;;
44842;SDS011;31884;52.538;13.820;2023-03-16T00:21:39;7.25;;;2.60;;
44842;SDS011;31884;52.538;13.820;2023-03-16T00:24:05;7.88;;;2.95;;
44842;SDS011;31884;52.538;13.820;2023-03-16T00:26:30;7.07;;;2.75;;
44842;SDS011;31884;52.538;13.820;2023-03-16T00:28:56;6.50;;;3.00;;
44842;SDS011;31884;52.538;13.820;2023-03-16T00:31:21;4.65;;;2.50;;
44842;SDS011;31884;52.538;13.820;2023-03-16T00:33:49;8.15;;;2.78;;
44842;SDS011;31884;52.538;13.820;2023-03-16T00:36:14;9.32;;;3.30;;
44842;SDS011;31884;52.538;13.820;2023-03-16T00:38:40;4.55;;;2.20;;
44842;SDS011;31884;52.538;13.820;2023-03-16T00:41:11;5.53;;;2.75;;
44842;SDS011;31884;52.538;13.820;2023-03-16T00:43:40;10.68;;;2.83;;
44842;SDS011;31884;52.538;13.820;2023-03-16T00:46:12;4.70;;;2.05;;
44842;SDS011;31884;52.538;13.820;2023-03-16T00:48:40;5.93;;;2.45;;
44842;SDS011;31884;52.538;13.820;2023-03-16T00:51:09;4.40;;;2.40;;
44842;SDS011;31884;52.538;13.820;2023-03-16T00:53:40;6.60;;;3.03;;
44842;SDS011;31884;52.538;13.820;2023-03-16T00:56:07;3.60;;;1.92;;
44842;SDS011;31884;52.538;13.820;2023-03-16T00:58:34;6.20;;;2.47;;
44842;SDS011;31884;52.538;13.820;2023-03-16T01:01:06;10.73;;;2.75;;
44842;SDS011;31884;52.538;13.820;2023-03-16T01:03:34;3.78;;;2.08;;
44842;SDS011;31884;52.538;13.820;2023-03-16T01:06:10;5.30;;;2.58;;
44842;SDS011;31884;52.538;13.820;2023-03-16T01:08:37;6.97;;;3.10;;
44842;SDS011;31884;52.538;13.820;2023-03-16T01:11:08;8.18;;;2.80;;
44842;SDS011;31884;52.538;13.820;2023-03-16T01:13:36;5.40;;;2.70;;
44842;SDS011;31884;52.538;13.820;2023-03-16T01:16:02;9.65;;;2.35;;
44842;SDS011;31884;52.538;13.820;2023-03-16T01:18:29;4.82;;;2.83;;
44842;SDS011;31884;52.538;13.820;2023-03-16T01:20:58;5.18;;;2.58;;
44842;SDS011;31884;52.538;13.820;2023-03-16T01:23:25;7.13;;;2.60;;
44842;SDS011;31884;52.538;13.820;2023-03-16T01:25:54;6.40;;;3.03;;
44842;SDS011;31884;52.538;13.820;2023-03-16T01:28:20;9.07;;;3.50;;
44842;SDS011;31884;52.538;13.820;2023-03-16T01:30:48;8.18;;;2.70;;
44842;SDS011;31884;52.538;13.820;2023-03-16T01:33:18;4.05;;;2.10;;
44842;SDS011;31884;52.538;13.820;2023-03-16T01:35:50;3.60;;;2.00;;
44842;SDS011;31884;52.538;13.820;2023-03-16T01:38:17;6.93;;;2.47;;
44842;SDS011;31884;52.538;13.820;2023-03-16T01:40:43;7.97;;;2.95;;
44842;SDS011;31884;52.538;13.820;2023-03-16T01:43:09;5.47;;;2.33;;
44842;SDS011;31884;52.538;13.820;2023-03-16T01:46:05;6.00;;;2.20;;
44842;SDS011;31884;52.538;13.820;2023-03-16T01:51:08;7.53;;;2.55;;
44842;SDS011;31884;52.538;13.820;2023-03-16T01:53:38;5.85;;;2.45;;
44842;SDS011;31884;52.538;13.820;2023-03-16T01:56:08;3.50;;;1.65;;
44842;SDS011;31884;52.538;13.820;2023-03-16T01:58:37;5.93;;;2.05;;
44842;SDS011;31884;52.538;13.820;2023-03-16T02:01:03;6.22;;;2.20;;
44842;SDS011;31884;52.538;13.820;2023-03-16T02:03:30;6.85;;;1.98;;
44842;SDS011;31884;52.538;13.820;2023-03-16T02:06:03;6.25;;;2.17;;
44842;SDS011;31884;52.538;13.820;2023-03-16T02:08:33;3.45;;;1.70;;
44842;SDS011;31884;52.538;13.820;2023-03-16T02:11:01;5.50;;;2.53;;
44842;SDS011;31884;52.538;13.820;2023-03-16T02:13:28;5.20;;;2.10;;
44842;SDS011;31884;52.538;13.820;2023-03-16T02:15:57;3.97;;;2.40;;
44842;SDS011;31884;52.538;13.820;2023-03-16T02:18:23;5.30;;;2.35;;
44842;SDS011;31884;52.538;13.820;2023-03-16T02:20:49;3.95;;;2.03;;
44842;SDS011;31884;52.538;13.820;2023-03-16T02:23:22;6.00;;;2.17;;
44842;SDS011;31884;52.538;13.820;2023-03-16T02:31:35;3.57;;;2.00;;
44842;SDS011;31884;52.538;13.820;2023-03-16T02:34:01;6.63;;;2.40;;
44842;SDS011;31884;52.538;13.820;2023-03-16T02:36:28;8.90;;;2.17;;
44842;SDS011;31884;52.538;13.820;2023-03-16T02:38:54;5.15;;;1.73;;
44842;SDS011;31884;52.538;13.820;2023-03-16T02:41:20;6.80;;;1.63;;
44842;SDS011;31884;52.538;13.820;2023-03-16T02:43:47;4.05;;;1.85;;
44842;SDS011;31884;52.538;13.820;2023-03-16T02:46:18;6.22;;;2.20;;
44842;SDS011;31884;52.538;13.820;2023-03-16T02:48:48;4.88;;;2.15;;
44842;SDS011;31884;52.538;13.820;2023-03-16T02:51:35;2.97;;;1.73;;
44842;SDS011;31884;52.538;13.820;2023-03-16T02:54:00;5.57;;;2.30;;
44842;SDS011;31884;52.538;13.820;2023-03-16T02:56:26;5.03;;;2.25;;
44842;SDS011;31884;52.538;13.820;2023-03-16T02:58:51;5.40;;;1.70;;
44842;SDS011;31884;52.538;13.820;2023-03-16T03:01:17;5.63;;;1.95;;
44842;SDS011;31884;52.538;13.820;2023-03-16T03:03:42;4.13;;;1.83;;
44842;SDS011;31884;52.538;13.820;2023-03-16T03:06:08;8.18;;;2.38;;
44842;SDS011;31884;52.538;13.820;2023-03-16T03:08:34;3.75;;;1.90;;
44842;SDS011;31884;52.538;13.820;2023-03-16T03:11:00;4.70;;;2.00;;
44842;SDS011;31884;52.538;13.820;2023-03-16T03:13:26;4.50;;;2.10;;
44842;SDS011;31884;52.538;13.820;2023-03-16T03:15:51;4.25;;;1.88;;
44842;SDS011;31884;52.538;13.820;2023-03-16T03:18:17;5.78;;;2.17;;
44842;SDS011;31884;52.538;13.820;2023-03-16T03:20:42;5.75;;;2.10;;
44842;SDS011;31884;52.538;13.820;2023-03-16T03:23:08;7.20;;;2.70;;
44842;SDS011;31884;52.538;13.820;2023-03-16T03:25:34;5.18;;;1.83;;
44842;SDS011;31884;52.538;13.820;2023-03-16T03:27:59;10.77;;;2.28;;
44842;SDS011;31884;52.538;13.820;2023-03-16T03:30:26;3.40;;;1.77;;
44842;SDS011;31884;52.538;13.820;2023-03-16T03:32:52;3.22;;;1.70;;
44842;SDS011;31884;52.538;13.820;2023-03-16T03:35:18;5.25;;;2.15;;
44842;SDS011;31884;52.538;13.820;2023-03-16T03:37:43;6.75;;;1.98;;
44842;SDS011;31884;52.538;13.820;2023-03-16T03:40:10;3.30;;;1.85;;
44842;SDS011;31884;52.538;13.820;2023-03-16T03:42:38;7.07;;;2.30;;
44842;SDS011;31884;52.538;13.820;2023-03-16T03:45:04;5.47;;;1.90;;
44842;SDS011;31884;52.538;13.820;2023-03-16T03:47:30;3.15;;;1.40;;
44842;SDS011;31884;52.538;13.820;2023-03-16T03:49:55;7.32;;;1.80;;
44842;SDS011;31884;52.538;13.820;2023-03-16T03:52:21;3.42;;;1.48;;
44842;SDS011;31884;52.538;13.820;2023-03-16T03:54:46;8.13;;;2.30;;
44842;SDS011;31884;52.538;13.820;2023-03-16T03:57:11;8.20;;;2.10;;
44842;SDS011;31884;52.538;13.820;2023-03-16T03:59:37;3.85;;;1.50;;
44842;SDS011;31884;52.538;13.820;2023-03-16T04:02:08;3.22;;;1.60;;
44842;SDS011;31884;52.538;13.820;2023-03-16T04:04:34;3.85;;;2.03;;
44842;SDS011;31884;52.538;13.820;2023-03-16T04:07:00;4.30;;;2.95;;
44842;SDS011;31884;52.538;13.820;2023-03-16T04:09:26;6.95;;;1.98;;
44842;SDS011;31884;52.538;13.820;2023-03-16T04:11:52;4.97;;;2.05;;
44842;SDS011;31884;52.538;13.820;2023-03-16T04:14:17;4.47;;;2.47;;
44842;SDS011;31884;52.538;13.820;2023-03-16T04:16:43;5.10;;;2.30;;
44842;SDS011;31884;52.538;13.820;2023-03-16T04:19:09;4.80;;;2.17;;
44842;SDS011;31884;52.538;13.820;2023-03-16T04:21:36;6.00;;;2.47;;
44842;SDS011;31884;52.538;13.820;2023-03-16T04:24:02;3.67;;;1.88;;
44842;SDS011;31884;52.538;13.820;2023-03-16T04:26:29;4.18;;;1.75;;
44842;SDS011;31884;52.538;13.820;2023-03-16T04:28:55;6.82;;;2.40;;
44842;SDS011;31884;52.538;13.820;2023-03-16T04:31:21;8.05;;;3.33;;
44842;SDS011;31884;52.538;13.820;2023-03-16T04:33:47;6.70;;;2.53;;
44842;SDS011;31884;52.538;13.820;2023-03-16T04:36:13;5.85;;;2.70;;
44842;SDS011;31884;52.538;13.820;2023-03-16T04:38:39;5.20;;;1.67;;
44842;SDS011;31884;52.538;13.820;2023-03-16T04:41:05;3.40;;;1.60;;
44842;SDS011;31884;52.538;13.820;2023-03-16T04:43:31;5.47;;;1.73;;
44842;SDS011;31884;52.538;13.820;2023-03-16T04:45:58;5.25;;;2.35;;
44842;SDS011;31884;52.538;13.820;2023-03-16T04:48:25;7.25;;;2.60;;
44842;SDS011;31884;52.538;13.820;2023-03-16T04:50:51;3.72;;;2.58;;
44842;SDS011;31884;52.538;13.820;2023-03-16T04:53:17;5.78;;;2.58;;
44842;SDS011;31884;52.538;13.820;2023-03-16T04:55:43;9.10;;;3.33;;
44842;SDS011;31884;52.538;13.820;2023-03-16T04:58:09;9.13;;;3.28;;
44842;SDS011;31884;52.538;13.820;2023-03-16T05:00:35;6.82;;;2.55;;
44842;SDS011;31884;52.538;13.820;2023-03-16T05:03:00;6.82;;;3.08;;
44842;SDS011;31884;52.538;13.820;2023-03-16T05:05:26;4.38;;;2.38;;
44842;SDS011;31884;52.538;13.820;2023-03-16T05:07:52;6.85;;;2.65;;
44842;SDS011;31884;52.538;13.820;2023-03-16T05:10:17;8.68;;;2.75;;
44842;SDS011;31884;52.538;13.820;2023-03-16T05:12:43;8.77;;;2.78;;
44842;SDS011;31884;52.538;13.820;2023-03-16T05:15:09;11.30;;;2.70;;
44842;SDS011;31884;52.538;13.820;2023-03-16T05:17:35;4.53;;;2.35;;
44842;SDS011;31884;52.538;13.820;2023-03-16T05:20:01;3.50;;;1.60;;
44842;SDS011;31884;52.538;13.820;2023-03-16T05:22:40;8.98;;;2.47;;
44842;SDS011;31884;52.538;13.820;2023-03-16T05:25:07;4.57;;;2.08;;
44842;SDS011;31884;52.538;13.820;2023-03-16T05:27:38;6.18;;;2.28;;
44842;SDS011;31884;52.538;13.820;2023-03-16T05:30:05;5.15;;;2.55;;
44842;SDS011;31884;52.538;13.820;2023-03-16T05:32:32;7.93;;;2.30;;
44842;SDS011;31884;52.538;13.820;2023-03-16T05:34:57;4.20;;;1.92;;
44842;SDS011;31884;52.538;13.820;2023-03-16T05:37:23;4.45;;;1.88;;
44842;SDS011;31884;52.538;13.820;2023-03-16T05:39:48;7.90;;;2.20;;
44842;SDS011;31884;52.538;13.820;2023-03-16T05:42:14;4.78;;;2.17;;
44842;SDS011;31884;52.538;13.820;2023-03-16T05:44:39;4.38;;;1.70;;
44842;SDS011;31884;52.538;13.820;2023-03-16T05:47:05;7.15;;;2.20;;
44842;SDS011;31884;52.538;13.820;2023-03-16T05:49:30;7.00;;;2.08;;
44842;SDS011;31884;52.538;13.820;2023-03-16T05:51:56;5.47;;;1.52;;
44842;SDS011;31884;52.538;13.820;2023-03-16T05:54:21;5.10;;;1.58;;
44842;SDS011;31884;52.538;13.820;2023-03-16T05:56:47;7.10;;;2.40;;
44842;SDS011;31884;52.538;13.820;2023-03-16T05:59:12;5.85;;;2.30;;
44842;SDS011;31884;52.538;13.820;2023-03-16T06:01:38;14.50;;;2.92;;
44842;SDS011;31884;52.538;13.820;2023-03-16T06:04:04;3.80;;;1.75;;
44842;SDS011;31884;52.538;13.820;2023-03-16T06:06:29;3.03;;;1.73;;
44842;SDS011;31884;52.538;13.820;2023-03-16T06:08:55;4.70;;;2.00;;
44842;SDS011;31884;52.538;13.820;2023-03-16T06:11:20;4.93;;;2.08;;
44842;SDS011;31884;52.538;13.820;2023-03-16T06:13:46;6.95;;;3.10;;
44842;SDS011;31884;52.538;13.820;2023-03-16T06:16:11;4.38;;;2.40;;
44842;SDS011;31884;52.538;13.820;2023-03-16T06:18:39;5.30;;;2.03;;
44842;SDS011;31884;52.538;13.820;2023-03-16T06:21:05;4.45;;;2.10;;
44842;SDS011;31884;52.538;13.820;2023-03-16T06:23:31;7.70;;;2.20;;
44842;SDS011;31884;52.538;13.820;2023-03-16T06:25:57;7.97;;;2.25;;
44842;SDS011;31884;52.538;13.820;2023-03-16T06:28:24;3.60;;;1.98;;
44842;SDS011;31884;52.538;13.820;2023-03-16T06:30:53;6.75;;;2.72;;
44842;SDS011;31884;52.538;13.820;2023-03-16T06:33:20;6.70;;;2.33;;
44842;SDS011;31884;52.538;13.820;2023-03-16T06:35:45;7.30;;;1.95;;
44842;SDS011;31884;52.538;13.820;2023-03-16T06:38:12;3.38;;;1.88;;
44842;SDS011;31884;52.538;13.820;2023-03-16T06:40:38;6.30;;;2.00;;
44842;SDS011;31884;52.538;13.820;2023-03-16T06:43:05;2.67;;;1.77;;
44842;SDS011;31884;52.538;13.820;2023-03-16T06:45:30;5.57;;;1.90;;
44842;SDS011;31884;52.538;13.820;2023-03-16T06:47:56;3.67;;;2.28;;
44842;SDS011;31884;52.538;13.820;2023-03-16T06:50:21;4.57;;;1.73;;
44842;SDS011;31884;52.538;13.820;2023-03-16T06:52:47;3.72;;;1.83;;
44842;SDS011;31884;52.538;13.820;2023-03-16T06:55:12;4.03;;;1.92;;
44842;SDS011;31884;52.538;13.820;2023-03-16T06:57:38;3.95;;;2.00;;
44842;SDS011;31884;52.538;13.820;2023-03-16T07:00:05;3.17;;;1.60;;
44842;SDS011;31884;52.538;13.820;2023-03-16T07:02:32;3.58;;;1.80;;
44842;SDS011;31884;52.538;13.820;2023-03-16T07:04:59;3.88;;;1.90;;
44842;SDS011;31884;52.538;13.820;2023-03-16T07:07:26;3.90;;;1.92;;
44842;SDS011;31884;52.538;13.820;2023-03-16T07:09:51;4.50;;;2.10;;
44842;SDS011;31884;52.538;13.820;2023-03-16T07:12:17;4.80;;;1.80;;
44842;SDS011;31884;52.538;13.820;2023-03-16T07:14:42;4.43;;;1.90;;
44842;SDS011;31884;52.538;13.820;2023-03-16T07:17:08;3.08;;;1.63;;
44842;SDS011;31884;52.538;13.820;2023-03-16T07:19:33;4.47;;;1.80;;
44842;SDS011;31884;52.538;13.820;2023-03-16T07:21:59;4.57;;;1.73;;
44842;SDS011;31884;52.538;13.820;2023-03-16T07:24:26;2.58;;;1.70;;
44842;SDS011;31884;52.538;13.820;2023-03-16T07:26:52;3.67;;;2.10;;
44842;SDS011;31884;52.538;13.820;2023-03-16T07:29:17;3.92;;;1.92;;
44842;SDS011;31884;52.538;13.820;2023-03-16T07:31:43;3.33;;;2.40;;
44842;SDS011;31884;52.538;13.820;2023-03-16T07:34:09;4.65;;;2.33;;
44842;SDS011;31884;52.538;13.820;2023-03-16T07:36:34;4.38;;;2.30;;
44842;SDS011;31884;52.538;13.820;2023-03-16T07:39:00;4.57;;;2.40;;
44842;SDS011;31884;52.538;13.820;2023-03-16T07:41:25;5.47;;;2.40;;
44842;SDS011;31884;52.538;13.820;2023-03-16T07:43:51;3.97;;;2.22;;
44842;SDS011;31884;52.538;13.820;2023-03-16T07:46:17;3.92;;;1.85;;
44842;SDS011;31884;52.538;13.820;2023-03-16T07:48:43;4.00;;;2.20;;
44842;SDS011;31884;52.538;13.820;2023-03-16T07:51:09;2.88;;;1.80;;
44842;SDS011;31884;52.538;13.820;2023-03-16T07:53:35;3.47;;;2.10;;
44842;SDS011;31884;52.538;13.820;2023-03-16T07:56:01;4.75;;;2.40;;
44842;SDS011;31884;52.538;13.820;2023-03-16T07:58:27;3.72;;;2.10;;
44842;SDS011;31884;52.538;13.820;2023-03-16T08:00:56;3.90;;;1.98;;
44842;SDS011;31884;52.538;13.820;2023-03-16T08:03:23;4.97;;;2.30;;
44842;SDS011;31884;52.538;13.820;2023-03-16T08:05:52;4.28;;;2.45;;
44842;SDS011;31884;52.538;13.820;2023-03-16T08:08:18;3.80;;;1.65;;
44842;SDS011;31884;52.538;13.820;2023-03-16T08:10:48;5.88;;;2.03;;
44842;SDS011;31884;52.538;13.820;2023-03-16T08:13:16;4.15;;;2.10;;
44842;SDS011;31884;52.538;13.820;2023-03-16T08:15:46;3.47;;;1.80;;
44842;SDS011;31884;52.538;13.820;2023-03-16T08:18:12;4.07;;;1.85;;
44842;SDS011;31884;52.538;13.820;2023-03-16T08:20:37;3.65;;;1.80;;
44842;SDS011;31884;52.538;13.820;2023-03-16T08:23:03;6.20;;;1.80;;
44842;SDS011;31884;52.538;13.820;2023-03-16T08:25:28;5.60;;;2.17;;
44842;SDS011;31884;52.538;13.820;2023-03-16T08:27:54;3.03;;;1.60;;
44842;SDS011;31884;52.538;13.820;2023-03-16T08:30:22;4.72;;;1.70;;
44842;SDS011;31884;52.538;13.820;2023-03-16T08:32:47;3.65;;;1.65;;
44842;SDS011;31884;52.538;13.820;2023-03-16T08:35:14;4.32;;;1.90;;
44842;SDS011;31884;52.538;13.820;2023-03-16T08:37:40;3.72;;;1.70;;
44842;SDS011;31884;52.538;13.820;2023-03-16T08:40:07;3.97;;;1.60;;
44842;SDS011;31884;52.538;13.820;2023-03-16T08:42:43;4.18;;;1.63;;
44842;SDS011;31884;52.538;13.820;2023-03-16T08:45:09;5.15;;;1.70;;
44842;SDS011;31884;52.538;13.820;2023-03-16T08:47:35;4.35;;;1.30;;
44842;SDS011;31884;52.538;13.820;2023-03-16T08:50:01;4.30;;;1.73;;
44842;SDS011;31884;52.538;13.820;2023-03-16T08:52:29;4.00;;;1.50;;
44842;SDS011;31884;52.538;13.820;2023-03-16T08:54:55;3.08;;;1.48;;
44842;SDS011;31884;52.538;13.820;2023-03-16T08:57:21;4.10;;;1.58;;
44842;SDS011;31884;52.538;13.820;2023-03-16T08:59:47;2.88;;;1.40;;
44842;SDS011;31884;52.538;13.820;2023-03-16T09:02:13;3.92;;;1.15;;
44842;SDS011;31884;52.538;13.820;2023-03-16T09:04:39;2.17;;;1.67;;
44842;SDS011;31884;52.538;13.820;2023-03-16T09:07:05;3.90;;;1.35;;
44842;SDS011;31884;52.538;13.820;2023-03-16T09:09:31;2.63;;;1.40;;
44842;SDS011;31884;52.538;13.820;2023-03-16T09:11:57;3.85;;;1.50;;
44842;SDS011;31884;52.538;13.820;2023-03-16T09:14:23;3.15;;;1.50;;
44842;SDS011;31884;52.538;13.820;2023-03-16T09:16:49;3.13;;;1.52;;
44842;SDS011;31884;52.538;13.820;2023-03-16T09:19:16;2.70;;;1.48;;
44842;SDS011;31884;52.538;13.820;2023-03-16T09:21:41;3.63;;;1.30;;
44842;SDS011;31884;52.538;13.820;2023-03-16T09:24:08;4.05;;;1.42;;
44842;SDS011;31884;52.538;13.820;2023-03-16T09:26:34;3.03;;;1.60;;
44842;SDS011;31884;52.538;13.820;2023-03-16T09:29:01;3.03;;;1.15;;
44842;SDS011;31884;52.538;13.820;2023-03-16T09:31:27;3.25;;;1.70;;
44842;SDS011;31884;52.538;13.820;2023-03-16T09:33:52;4.25;;;1.30;;
44842;SDS011;31884;52.538;13.820;2023-03-16T09:36:18;3.83;;;1.65;;
44842;SDS011;31884;52.538;13.820;2023-03-16T09:38:44;3.10;;;1.50;;
44842;SDS011;31884;52.538;13.820;2023-03-16T09:41:29;4.07;;;1.45;;
44842;SDS011;31884;52.538;13.820;2023-03-16T09:43:59;4.40;;;1.40;;
44842;SDS011;31884;52.538;13.820;2023-03-16T09:46:35;5.28;;;1.60;;
44842;SDS011;31884;52.538;13.820;2023-03-16T09:49:08;2.67;;;1.38;;
44842;SDS011;31884;52.538;13.820;2023-03-16T09:51:44;3.53;;;1.50;;
44842;SDS011;31884;52.538;13.820;2023-03-16T09:56:50;3.35;;;1.50;;
44842;SDS011;31884;52.538;13.820;2023-03-16T09:59:18;4.65;;;1.20;;
44842;SDS011;31884;52.538;13.820;2023-03-16T10:01:53;3.95;;;1.33;;
44842;SDS011;31884;52.538;13.820;2023-03-16T10:04:41;3.95;;;1.58;;
44842;SDS011;31884;52.538;13.820;2023-03-16T10:10:13;4.25;;;1.30;;
44842;SDS011;31884;52.538;13.820;2023-03-16T10:12:53;3.33;;;1.50;;
44842;SDS011;31884;52.538;13.820;2023-03-16T10:15:24;2.28;;;1.20;;
44842;SDS011;31884;52.538;13.820;2023-03-16T10:18:00;4.15;;;1.40;;
44842;SDS011;31884;52.538;13.820;2023-03-16T10:20:31;2.28;;;1.00;;
44842;SDS011;31884;52.538;13.820;2023-03-16T10:22:58;2.95;;;1.13;;
44842;SDS011;31884;52.538;13.820;2023-03-16T10:25:43;4.47;;;1.40;;
44842;SDS011;31884;52.538;13.820;2023-03-16T10:28:15;2.83;;;1.10;;
44842;SDS011;31884;52.538;13.820;2023-03-16T10:30:46;3.65;;;1.08;;
44842;SDS011;31884;52.538;13.820;2023-03-16T10:33:24;2.55;;;0.90;;
44842;SDS011;31884;52.538;13.820;2023-03-16T10:38:40;2.30;;;1.13;;
44842;SDS011;31884;52.538;13.820;2023-03-16T10:43:56;2.95;;;1.00;;
44842;SDS011;31884;52.538;13.820;2023-03-16T10:46:46;3.97;;;0.90;;
44842;SDS011;31884;52.538;13.820;2023-03-16T10:49:23;2.83;;;0.98;;
44842;SDS011;31884;52.538;13.820;2023-03-16T10:51:51;3.13;;;1.08;;
44842;SDS011;31884;52.538;13.820;2023-03-16T10:54:22;2.63;;;0.82;;
44842;SDS011;31884;52.538;13.820;2023-03-16T10:56:54;1.65;;;0.93;;
44842;SDS011;31884;52.538;13.820;2023-03-16T10:59:28;3.42;;;0.93;;
44842;SDS011;31884;52.538;13.820;2023-03-16T11:02:07;3.45;;;0.95;;
44842;SDS011;31884;52.538;13.820;2023-03-16T11:04:39;3.95;;;1.08;;
44842;SDS011;31884;52.538;13.820;2023-03-16T11:07:06;3.55;;;1.15;;
44842;SDS011;31884;52.538;13.820;2023-03-16T11:09:35;4.43;;;1.17;;
44842;SDS011;31884;52.538;13.820;2023-03-16T11:14:48;2.28;;;1.23;;
44842;SDS011;31884;52.538;13.820;2023-03-16T11:17:15;1.90;;;1.00;;
44842;SDS011;31884;52.538;13.820;2023-03-16T11:19:58;5.40;;;1.10;;
44842;SDS011;31884;52.538;13.820;2023-03-16T11:22:31;1.58;;;0.90;;
44842;SDS011;31884;52.538;13.820;2023-03-16T11:30:28;4.45;;;1.67;;
44842;SDS011;31884;52.538;13.820;2023-03-16T11:33:12;1.80;;;0.85;;
44842;SDS011;31884;52.538;13.820;2023-03-16T11:38:23;2.15;;;1.30;;
44842;SDS011;31884;52.538;13.820;2023-03-16T11:41:05;4.15;;;1.23;;
44842;SDS011;31884;52.538;13.820;2023-03-16T11:48:52;2.97;;;0.90;;
44842;SDS011;31884;52.538;13.820;2023-03-16T12:05:22;3.40;;;1.40;;
44842;SDS011;31884;52.538;13.820;2023-03-16T12:08:13;1.95;;;1.05;;
44842;SDS011;31884;52.538;13.820;2023-03-16T12:10:56;2.63;;;1.05;;
44842;SDS011;31884;52.538;13.820;2023-03-16T12:16:25;3.05;;;0.73;;
44842;SDS011;31884;52.538;13.820;2023-03-16T12:19:02;2.08;;;0.70;;
44842;SDS011;31884;52.538;13.820;2023-03-16T12:21:39;2.72;;;0.55;;
44842;SDS011;31884;52.538;13.820;2023-03-16T12:24:18;2.28;;;0.73;;
44842;SDS011;31884;52.538;13.820;2023-03-16T12:26:50;1.63;;;0.70;;
44842;SDS011;31884;52.538;13.820;2023-03-16T12:29:27;3.28;;;0.75;;
44842;SDS011;31884;52.538;13.820;2023-03-16T12:45:12;1.85;;;0.73;;
44842;SDS011;31884;52.538;13.820;2023-03-16T12:48:00;2.88;;;0.70;;
44842;SDS011;31884;52.538;13.820;2023-03-16T12:50:49;1.75;;;0.60;;
44842;SDS011;31884;52.538;13.820;2023-03-16T12:56:09;2.58;;;0.60;;
44842;SDS011;31884;52.538;13.820;2023-03-16T12:58:53;1.67;;;0.60;;
44842;SDS011;31884;52.538;13.820;2023-03-16T13:01:24;3.78;;;1.00;;
44842;SDS011;31884;52.538;13.820;2023-03-16T13:04:04;1.38;;;0.73;;
44842;SDS011;31884;52.538;13.820;2023-03-16T13:06:58;2.20;;;0.40;;
44842;SDS011;31884;52.538;13.820;2023-03-16T13:09:28;1.33;;;0.57;;
44842;SDS011;31884;52.538;13.820;2023-03-16T13:11:56;4.40;;;1.27;;
44842;SDS011;31884;52.538;13.820;2023-03-16T13:14:31;1.33;;;0.93;;
44842;SDS011;31884;52.538;13.820;2023-03-16T13:19:40;3.80;;;1.30;;
44842;SDS011;31884;52.538;13.820;2023-03-16T13:22:24;1.33;;;0.80;;
44842;SDS011;31884;52.538;13.820;2023-03-16T13:24:57;2.03;;;0.88;;
44842;SDS011;31884;52.538;13.820;2023-03-16T13:27:36;3.15;;;1.10;;
44842;SDS011;31884;52.538;13.820;2023-03-16T13:30:14;3.80;;;1.10;;
44842;SDS011;31884;52.538;13.820;2023-03-16T13:32:40;3.92;;;0.93;;
44842;SDS011;31884;52.538;13.820;2023-03-16T13:35:06;4.35;;;1.40;;
44842;SDS011;31884;52.538;13.820;2023-03-16T13:37:37;1.80;;;0.82;;
44842;SDS011;31884;52.538;13.820;2023-03-16T13:40:15;1.50;;;0.82;;
44842;SDS011;31884;52.538;13.820;2023-03-16T13:42:47;3.80;;;0.98;;
44842;SDS011;31884;52.538;13.820;2023-03-16T13:45:18;2.72;;;0.85;;
44842;SDS011;31884;52.538;13.820;2023-03-16T13:47:48;3.50;;;0.80;;
44842;SDS011;31884;52.538;13.820;2023-03-16T13:50:14;2.60;;;1.00;;
44842;SDS011;31884;52.538;13.820;2023-03-16T13:52:41;3.55;;;1.00;;
44842;SDS011;31884;52.538;13.820;2023-03-16T13:55:17;3.42;;;0.80;;
44842;SDS011;31884;52.538;13.820;2023-03-16T13:57:49;2.33;;;1.00;;
44842;SDS011;31884;52.538;13.820;2023-03-16T14:00:17;3.13;;;0.88;;
44842;SDS011;31884;52.538;13.820;2023-03-16T14:02:53;6.72;;;1.08;;
44842;SDS011;31884;52.538;13.820;2023-03-16T14:05:24;4.03;;;0.73;;
44842;SDS011;31884;52.538;13.820;2023-03-16T14:07:51;3.55;;;0.70;;
44842;SDS011;31884;52.538;13.820;2023-03-16T14:10:19;4.45;;;1.02;;
44842;SDS011;31884;52.538;13.820;2023-03-16T14:12:49;3.72;;;1.10;;
44842;SDS011;31884;52.538;13.820;2023-03-16T14:15:19;4.07;;;1.05;;
44842;SDS011;31884;52.538;13.820;2023-03-16T14:17:46;2.05;;;0.70;;
44842;SDS011;31884;52.538;13.820;2023-03-16T14:20:22;6.47;;;1.00;;
44842;SDS011;31884;52.538;13.820;2023-03-16T14:22:52;2.10;;;0.80;;
44842;SDS011;31884;52.538;13.820;2023-03-16T14:25:19;1.85;;;0.70;;
44842;SDS011;31884;52.538;13.820;2023-03-16T14:27:47;1.88;;;0.50;;
44842;SDS011;31884;52.538;13.820;2023-03-16T14:30:25;1.85;;;0.77;;
44842;SDS011;31884;52.538;13.820;2023-03-16T14:33:18;2.53;;;0.80;;
44842;SDS011;31884;52.538;13.820;2023-03-16T14:35:53;2.28;;;1.00;;
44842;SDS011;31884;52.538;13.820;2023-03-16T14:43:32;1.23;;;0.70;;
44842;SDS011;31884;52.538;13.820;2023-03-16T14:46:01;1.85;;;0.68;;
44842;SDS011;31884;52.538;13.820;2023-03-16T14:48:29;1.13;;;0.75;;
44842;SDS011;31884;52.538;13.820;2023-03-16T14:50:56;1.70;;;0.70;;
44842;SDS011;31884;52.538;13.820;2023-03-16T14:53:24;6.25;;;1.20;;
44842;SDS011;31884;52.538;13.820;2023-03-16T14:55:52;2.80;;;0.77;;
44842;SDS011;31884;52.538;13.820;2023-03-16T14:58:18;2.58;;;0.77;;
44842;SDS011;31884;52.538;13.820;2023-03-16T15:00:44;4.65;;;1.05;;
44842;SDS011;31884;52.538;13.820;2023-03-16T15:03:11;0.73;;;0.60;;
44842;SDS011;31884;52.538;13.820;2023-03-16T15:05:41;1.58;;;1.02;;
44842;SDS011;31884;52.538;13.820;2023-03-16T15:08:16;2.67;;;0.80;;
44842;SDS011;31884;52.538;13.820;2023-03-16T15:10:47;4.88;;;1.58;;
44842;SDS011;31884;52.538;13.820;2023-03-16T15:13:16;6.57;;;1.13;;
44842;SDS011;31884;52.538;13.820;2023-03-16T15:16:01;2.45;;;0.52;;
44842;SDS011;31884;52.538;13.820;2023-03-16T15:18:29;3.25;;;0.90;;
44842;SDS011;31884;52.538;13.820;2023-03-16T15:20:55;1.95;;;0.80;;
44842;SDS011;31884;52.538;13.820;2023-03-16T15:23:21;5.25;;;1.05;;
44842;SDS011;31884;52.538;13.820;2023-03-16T15:25:47;3.05;;;0.90;;
44842;SDS011;31884;52.538;13.820;2023-03-16T15:30:49;2.70;;;0.75;;
44842;SDS011;31884;52.538;13.820;2023-03-16T15:33:16;4.80;;;1.05;;
44842;SDS011;31884;52.538;13.820;2023-03-16T15:35:42;4.65;;;0.88;;
44842;SDS011;31884;52.538;13.820;2023-03-16T15:38:13;2.42;;;0.60;;
44842;SDS011;31884;52.538;13.820;2023-03-16T15:40:45;2.95;;;1.00;;
44842;SDS011;31884;52.538;13.820;2023-03-16T15:43:12;1.60;;;0.77;;
44842;SDS011;31884;52.538;13.820;2023-03-16T15:45:40;3.85;;;1.20;;
44842;SDS011;31884;52.538;13.820;2023-03-16T15:48:07;1.77;;;0.52;;
44842;SDS011;31884;52.538;13.820;2023-03-16T15:50:34;4.88;;;0.88;;
44842;SDS011;31884;52.538;13.820;2023-03-16T15:53:08;2.45;;;0.70;;
44842;SDS011;31884;52.538;13.820;2023-03-16T15:55:40;3.05;;;0.70;;
44842;SDS011;31884;52.538;13.820;2023-03-16T15:58:18;2.15;;;0.70;;
44842;SDS011;31884;52.538;13.820;2023-03-16T16:00:48;6.28;;;1.00;;
44842;SDS011;31884;52.538;13.820;2023-03-16T16:03:13;2.33;;;0.80;;